KSOW Airport (Show Low Rgnl) Information

FAA: SOW - ICAO: KSOW

KSOW Airport Location

State Arizona
County Navajo
City Show Low
KSOW Airport is 2 miles east of Show Low, AZ.
Latitude 34-15-55.7000N
Longitude 110-00-20.4000W
Elevation 6,415ft

KSOW Airport METARs

METAR KSOW 020035Z AUTO 34007KT 10SM CLR 01/M09 A3018 RMK AO2
Altimeter 30.18"
Temperature 1.0°C (33.8°F)
Wind 340° at 7KT
Clouds Skies are clear.
Visibility 10.0mi
Time observed: 2023-02-02T00:35:00Z

KSOW Airport Details

Status Operational
Activation December 1946
Ownership Public
Usage Public
Chart PHOENIX
ATC on-site No
Beacon schedule sunset-sunrise
Beacon color clear green

KSOW Airport Contacts

Owner CITY OF SHOWLOW
Owner address 180 N. 9TH PLACE, SHOW LOW, AZ 85901
Owner phone (928) 532-4000
Manager JAY GILBERT
Manager address P.O. BOX 1251, ST. JOHNS, AZ 85936
Manager phone 928-521-9579

KSOW Airport (Show Low Rgnl) Radio Frequencies

KSOW (Airport) Radio Frequencies

UNICOM 123
Common traffic advisory frequency (CTAF) 123